Time;durP1;ratioP1;P1;durP2;ratioP2;P2;SDS_P1;SDS_P2;PMS_P1;PMS_P2;Temp;Humidity;BMP_temperature;BMP_pressure;BME280_temperature;BME280_humidity;BME280_pressure;Samples;Min_cycle;Max_cycle;Signal;HPM_P1;HPM_P2
2022/02/02 00:02:38;;;;;;;3.72;2.30;;;4.30;99.90;;;;;;6219455;23;20011;-86
2022/02/02 00:05:19;;;;;;;4.38;2.50;;;4.20;99.90;;;;;;6219317;23;20388;-86
2022/02/02 00:08:00;;;;;;;5.75;2.80;;;4.30;99.90;;;;;;6246514;23;20306;-86
2022/02/02 00:13:12;;;;;;;6.70;3.17;;;4.30;99.90;;;;;;6256751;23;20012;-86
2022/02/02 00:15:56;;;;;;;7.18;2.72;;;4.20;99.90;;;;;;6219914;23;20328;-86
2022/02/02 00:23:19;;;;;;;5.90;2.40;;;4.30;99.90;;;;;;6246105;23;20004;-86
2022/02/02 00:25:53;;;;;;;6.55;2.10;;;4.20;99.90;;;;;;6219899;23;20069;-86
2022/02/02 00:28:23;;;;;;;2.90;1.90;;;4.30;99.90;;;;;;6246025;23;20063;-86
2022/02/02 00:30:49;;;;;;;3.50;1.98;;;4.20;99.90;;;;;;6219602;23;20023;-84
2022/02/02 00:33:23;;;;;;;3.85;2.03;;;4.20;99.90;;;;;;6246308;23;20000;-86
2022/02/02 00:36:02;;;;;;;3.35;2.20;;;4.20;99.90;;;;;;6246384;23;20329;-86
2022/02/02 00:38:27;;;;;;;4.85;2.38;;;4.20;99.90;;;;;;6246342;23;20011;-85
2022/02/02 00:40:53;;;;;;;3.97;2.10;;;4.30;99.90;;;;;;6219160;23;20008;-86
2022/02/02 00:43:19;;;;;;;4.13;1.88;;;4.30;99.90;;;;;;6218872;23;20460;-85
2022/02/02 00:45:46;;;;;;;5.07;2.45;;;4.30;99.90;;;;;;6219158;23;20007;-86
2022/02/02 00:48:14;;;;;;;6.20;1.98;;;4.30;99.90;;;;;;6218903;23;20012;-85
2022/02/02 00:50:40;;;;;;;4.75;2.00;;;4.30;99.90;;;;;;6220151;23;20004;-84
2022/02/02 00:53:07;;;;;;;4.95;1.77;;;4.30;99.90;;;;;;6245931;23;20475;-85
2022/02/02 00:55:33;;;;;;;4.18;2.20;;;4.30;99.90;;;;;;6219100;23;20434;-85
2022/02/02 00:58:00;;;;;;;4.72;2.10;;;4.30;99.90;;;;;;6245917;23;20071;-85
2022/02/02 01:00:26;;;;;;;3.83;1.83;;;4.30;99.90;;;;;;6219133;23;20001;-85
2022/02/02 01:02:52;;;;;;;3.58;1.80;;;4.30;99.90;;;;;;6218863;23;20012;-87
2022/02/02 01:05:17;;;;;;;3.95;1.95;;;4.30;99.90;;;;;;6220241;23;20063;-88
2022/02/02 01:10:32;;;;;;;2.22;1.58;;;4.30;99.90;;;;;;6246048;23;20011;-87
2022/02/02 01:13:37;;;;;;;4.38;1.80;;;4.30;99.90;;;;;;6219044;23;20035;-87
2022/02/02 01:18:27;;;;;;;3.28;1.70;;;4.30;99.90;;;;;;6246591;23;20032;-87
2022/02/02 01:21:03;;;;;;;3.05;1.67;;;4.30;99.90;;;;;;6219018;23;20011;-87
2022/02/02 01:28:59;;;;;;;3.55;1.90;;;4.30;99.90;;;;;;6248325;23;20380;-87
2022/02/02 01:31:25;;;;;;;6.47;1.77;;;4.30;99.90;;;;;;6220964;23;20004;-87
2022/02/02 01:33:51;;;;;;;4.38;1.80;;;4.30;99.90;;;;;;6221183;23;20008;-87
2022/02/02 01:36:17;;;;;;;4.85;1.90;;;4.30;99.90;;;;;;6247718;23;20028;-87
2022/02/02 01:38:45;;;;;;;4.13;1.73;;;4.30;99.90;;;;;;6220840;23;20008;-87
2022/02/02 01:41:20;;;;;;;4.55;1.70;;;4.30;99.90;;;;;;6220831;23;20456;-87
2022/02/02 01:43:59;;;;;;;4.18;1.75;;;4.30;99.90;;;;;;6247675;23;20031;-87
2022/02/02 01:46:28;;;;;;;3.88;1.42;;;4.30;99.90;;;;;;6220749;23;20000;-87
2022/02/02 01:50:01;;;;;;;2.97;1.40;;;4.30;99.90;;;;;;6220635;23;20012;-88
2022/02/02 01:52:17;;;;;;;2.83;1.70;;;4.30;99.90;;;;;;6245398;23;20386;-87
2022/02/02 01:54:41;;;;;;;3.53;1.67;;;4.30;99.90;;;;;;6244530;23;20000;-88
2022/02/02 01:57:23;;;;;;;4.13;1.80;;;4.30;99.90;;;;;;6220693;23;20000;-87
2022/02/02 01:59:49;;;;;;;2.70;1.52;;;4.30;99.90;;;;;;6220714;23;20425;-88
2022/02/02 02:02:14;;;;;;;4.53;1.85;;;4.30;99.90;;;;;;6220566;23;20001;-88
2022/02/02 02:04:40;;;;;;;4.65;1.65;;;4.30;99.90;;;;;;6220640;23;20087;-88
2022/02/02 02:07:07;;;;;;;3.00;1.80;;;4.30;99.90;;;;;;6220566;23;20079;-88
2022/02/02 02:09:33;;;;;;;6.75;2.50;;;4.30;99.90;;;;;;6220462;23;20083;-87
2022/02/02 02:12:01;;;;;;;5.85;2.25;;;4.30;99.90;;;;;;6220483;23;20032;-88
2022/02/02 02:14:43;;;;;;;4.97;2.47;;;4.30;99.90;;;;;;6220507;23;20000;-88
2022/02/02 02:17:09;;;;;;;3.28;1.67;;;4.30;99.90;;;;;;6220627;23;20004;-87
2022/02/02 02:19:39;;;;;;;5.70;1.92;;;4.30;99.90;;;;;;6220485;23;20000;-87
2022/02/02 02:22:10;;;;;;;2.65;1.73;;;4.30;99.90;;;;;;6220326;23;20075;-87
2022/02/02 02:24:38;;;;;;;6.47;2.20;;;4.30;99.90;;;;;;6220700;23;20333;-88
2022/02/02 02:27:04;;;;;;;4.90;2.15;;;4.30;99.90;;;;;;6220535;23;20008;-88
2022/02/02 02:37:46;;;;;;;4.57;1.92;;;4.30;99.90;;;;;;6247405;23;20023;-88
2022/02/02 02:56:20;;;;;;;5.88;2.63;;;4.30;99.90;;;;;;6247205;23;20062;-88
2022/02/02 02:59:04;;;;;;;5.57;2.45;;;4.30;99.90;;;;;;6220250;23;20009;-88
2022/02/02 03:31:52;;;;;;;7.22;2.50;;;4.30;99.90;;;;;;6247387;23;20336;-88
2022/02/02 04:01:20;;;;;;;6.97;2.80;;;4.40;99.90;;;;;;6247542;23;20004;-89
2022/02/02 04:06:31;;;;;;;6.72;2.10;;;4.40;99.90;;;;;;6246654;23;20130;-89
2022/02/02 04:08:57;;;;;;;8.25;2.20;;;4.40;99.90;;;;;;6220203;23;20004;-89
2022/02/02 04:11:45;;;;;;;8.63;2.50;;;4.40;99.90;;;;;;6219640;23;20115;-89
2022/02/02 04:53:26;;;;;;;9.75;2.40;;;4.40;99.90;;;;;;6246579;23;20055;-90
2022/02/02 05:01:39;;;;;;;7.07;2.58;;;4.40;99.90;;;;;;6256993;23;20079;-90
2022/02/02 05:03:49;;;;;;;8.90;2.53;;;4.40;99.90;;;;;;6226987;23;20008;-90
2022/02/02 05:05:58;;;;;;;10.23;2.35;;;4.40;99.90;;;;;;6237276;23;20000;-90
2022/02/02 05:08:55;;;;;;;7.97;2.70;;;4.40;99.90;;;;;;6221800;23;20055;-91
2022/02/02 05:16:55;;;;;;;12.18;2.80;;;4.40;99.90;;;;;;6248606;23;19950;-90
2022/02/02 05:51:07;;;;;;;10.07;2.53;;;4.40;99.90;;;;;;6248698;23;20000;-91
2022/02/02 05:53:33;;;;;;;11.10;2.63;;;4.40;99.90;;;;;;6221655;23;20100;-90
2022/02/02 05:56:02;;;;;;;11.75;2.40;;;4.40;99.90;;;;;;6248264;23;20011;-91
2022/02/02 05:58:30;;;;;;;10.18;2.58;;;4.40;99.90;;;;;;6221493;23;20514;-90
2022/02/02 06:00:58;;;;;;;13.80;2.78;;;4.40;99.90;;;;;;6221447;23;20456;-90
2022/02/02 06:03:38;;;;;;;10.75;2.28;;;4.40;99.90;;;;;;6221354;23;20047;-90
2022/02/02 06:06:05;;;;;;;11.90;2.67;;;4.40;99.90;;;;;;6221514;23;20372;-90
2022/02/02 06:08:33;;;;;;;6.72;2.40;;;4.40;99.90;;;;;;6221870;23;20000;-90
2022/02/02 06:11:03;;;;;;;9.18;2.50;;;4.40;99.90;;;;;;6221475;23;20008;-91
2022/02/02 06:13:41;;;;;;;11.15;3.05;;;4.40;99.90;;;;;;6222341;23;20011;-91
2022/02/02 06:16:08;;;;;;;9.82;2.50;;;4.40;99.90;;;;;;6221536;23;20004;-91
2022/02/02 06:18:35;;;;;;;13.60;2.88;;;4.40;99.90;;;;;;6221371;23;20008;-90
2022/02/02 06:21:03;;;;;;;11.13;2.83;;;4.40;99.90;;;;;;6221377;23;20405;-90
2022/02/02 06:23:33;;;;;;;10.63;3.03;;;4.40;99.90;;;;;;6247954;23;19997;-90
2022/02/02 06:26:02;;;;;;;13.52;3.25;;;4.40;99.90;;;;;;6221339;23;20000;-91
2022/02/02 06:28:34;;;;;;;14.75;3.10;;;4.40;99.90;;;;;;6247950;23;19996;-90
2022/02/02 06:31:02;;;;;;;12.35;2.50;;;4.40;99.90;;;;;;6221222;23;20008;-90
2022/02/02 06:33:35;;;;;;;10.30;2.92;;;4.40;99.90;;;;;;6221278;23;20055;-90
2022/02/02 06:36:06;;;;;;;12.07;2.85;;;4.40;99.90;;;;;;6221248;23;20011;-90
2022/02/02 06:38:33;;;;;;;9.45;2.67;;;4.40;99.90;;;;;;6221240;23;20004;-91
2022/02/02 06:41:00;;;;;;;13.85;3.50;;;4.40;99.90;;;;;;6221168;23;20054;-90
2022/02/02 06:43:28;;;;;;;9.75;2.67;;;4.40;99.90;;;;;;6220998;23;20322;-91
2022/02/02 06:45:56;;;;;;;16.50;2.97;;;4.40;99.90;;;;;;6221191;23;20000;-89
2022/02/02 06:48:22;;;;;;;15.73;3.50;;;4.40;99.90;;;;;;6220474;23;20031;-91
2022/02/02 06:51:11;;;;;;;10.73;3.15;;;4.40;99.90;;;;;;6219520;23;20011;-90
2022/02/02 06:54:21;;;;;;;9.35;2.97;;;4.40;99.90;;;;;;6219492;23;20448;-91
2022/02/02 06:56:59;;;;;;;10.00;2.83;;;4.40;99.90;;;;;;6219549;23;20000;-90
2022/02/02 07:07:57;;;;;;;11.95;2.92;;;4.40;99.90;;;;;;6256375;23;20004;-90
2022/02/02 07:10:54;;;;;;;8.85;2.85;;;4.40;99.90;;;;;;6219436;23;20010;-90
2022/02/02 07:34:00;;;;;;;9.88;2.47;;;4.50;99.90;;;;;;6256014;23;20016;-91
2022/02/02 07:36:33;;;;;;;9.50;2.63;;;4.40;99.90;;;;;;6219077;23;20022;-92
2022/02/02 07:39:01;;;;;;;7.47;2.42;;;4.40;99.90;;;;;;6219174;23;20011;-90
2022/02/02 07:41:32;;;;;;;9.90;3.10;;;4.50;99.90;;;;;;6219413;23;20011;-90
2022/02/02 07:44:06;;;;;;;9.82;3.00;;;4.40;99.90;;;;;;6219278;23;20452;-90
2022/02/02 07:46:33;;;;;;;9.25;3.30;;;4.50;99.90;;;;;;6245928;23;20028;-90
2022/02/02 07:49:01;;;;;;;9.20;2.83;;;4.50;99.90;;;;;;6171049;23;1132164;-90
2022/02/02 07:51:27;;;;;;;9.77;2.45;;;4.50;99.90;;;;;;6247208;23;20054;-90
2022/02/02 07:53:57;;;;;;;15.73;3.40;;;4.50;99.90;;;;;;6220406;23;20004;-91
2022/02/02 07:56:29;;;;;;;13.00;2.88;;;4.50;99.90;;;;;;6220751;23;20085;-92
2022/02/02 07:59:13;;;;;;;10.98;3.28;;;4.50;99.90;;;;;;6220746;23;20075;-91
2022/02/02 08:01:38;;;;;;;14.20;3.30;;;4.50;99.90;;;;;;6220510;23;20087;-91
2022/02/02 08:04:04;;;;;;;11.27;2.55;;;4.50;99.90;;;;;;6220221;23;20004;-92
2022/02/02 08:06:30;;;;;;;13.20;3.50;;;4.50;99.90;;;;;;6220345;23;20019;-91
2022/02/02 08:08:56;;;;;;;14.43;2.95;;;4.50;99.90;;;;;;6220370;23;20001;-90
2022/02/02 08:11:29;;;;;;;12.70;2.88;;;4.50;99.90;;;;;;6220825;23;20008;-91
2022/02/02 08:14:01;;;;;;;13.48;2.92;;;4.50;99.90;;;;;;6220622;23;20000;-91
2022/02/02 08:16:29;;;;;;;10.82;3.03;;;4.50;99.90;;;;;;6220686;23;20004;-90
2022/02/02 08:18:54;;;;;;;12.80;2.90;;;4.50;99.90;;;;;;6246861;23;20031;-91
2022/02/02 08:21:21;;;;;;;11.70;2.67;;;4.50;99.90;;;;;;6220511;23;20000;-92
2022/02/02 08:23:47;;;;;;;11.85;2.75;;;4.50;99.90;;;;;;6247105;23;20027;-90
2022/02/02 08:26:15;;;;;;;13.73;3.05;;;4.50;99.90;;;;;;6220701;23;20386;-91
2022/02/02 08:28:43;;;;;;;8.73;2.72;;;4.50;99.90;;;;;;6247018;23;20382;-91
2022/02/02 08:31:08;;;;;;;10.27;3.13;;;4.50;99.90;;;;;;6220320;23;20008;-91
2022/02/02 08:33:38;;;;;;;7.10;2.67;;;4.50;99.90;;;;;;6247453;23;20409;-91
2022/02/02 08:36:09;;;;;;;9.20;2.53;;;4.60;99.90;;;;;;6220248;23;20015;-92
2022/02/02 08:38:44;;;;;;;7.80;2.60;;;4.50;99.90;;;;;;6220210;23;20341;-91
2022/02/02 08:41:15;;;;;;;12.55;3.40;;;4.50;99.90;;;;;;6246958;23;20011;-91
2022/02/02 08:43:54;;;;;;;10.48;2.38;;;4.60;99.90;;;;;;6220357;23;20004;-91
2022/02/02 08:48:55;;;;;;;14.77;3.17;;;4.60;99.90;;;;;;6252644;23;20502;-91
2022/02/02 08:51:24;;;;;;;15.52;2.88;;;4.60;99.90;;;;;;6246781;23;19997;-92
2022/02/02 08:54:18;;;;;;;11.38;2.95;;;4.60;99.90;;;;;;6220918;23;20383;-91
2022/02/02 08:57:29;;;;;;;13.07;2.80;;;4.60;99.90;;;;;;6246329;23;20082;-91
2022/02/02 08:59:26;;;;;;;13.27;3.10;;;4.60;99.90;;;;;;6230571;23;20008;-90
2022/02/02 09:01:53;;;;;;;12.43;3.00;;;4.60;99.90;;;;;;6220248;23;20000;-91
2022/02/02 09:07:05;;;;;;;14.52;3.00;;;4.60;99.90;;;;;;6247295;23;20023;-91
2022/02/02 09:09:52;;;;;;;11.73;3.33;;;4.60;99.90;;;;;;6246755;23;20336;-90
2022/02/02 09:36:17;;;;;;;13.32;3.50;;;4.60;99.90;;;;;;6257343;23;20014;-90
2022/02/02 09:38:43;;;;;;;14.82;3.70;;;4.60;99.90;;;;;;6221011;23;20478;-91
2022/02/02 09:43:37;;;;;;;15.18;3.42;;;4.60;99.90;;;;;;6247222;23;20429;-91
2022/02/02 09:46:11;;;;;;;19.05;3.90;;;4.70;99.90;;;;;;6219820;23;20004;-91
2022/02/02 09:48:50;;;;;;;;;;;4.70;99.90;;;;;;6216997;23;20016;-91
2022/02/02 09:51:25;;;;;;;15.98;3.78;;;4.70;99.90;;;;;;6216812;23;19907;-91
2022/02/02 09:54:02;;;;;;;11.68;3.20;;;4.70;99.90;;;;;;6216794;23;20011;-91
2022/02/02 10:00:17;;;;;;;13.57;3.35;;;4.70;99.90;;;;;;6218677;23;20341;-91
2022/02/02 10:13:23;;;;;;;9.30;3.08;;;4.70;99.90;;;;;;6218287;23;20008;-91
2022/02/02 10:15:52;;;;;;;13.32;3.33;;;4.70;99.90;;;;;;6216483;23;20009;-91
2022/02/02 10:18:22;;;;;;;16.27;3.95;;;4.70;99.90;;;;;;6216627;23;20001;-93
2022/02/02 10:20:52;;;;;;;15.02;3.15;;;4.80;99.90;;;;;;6216441;23;20006;-93
2022/02/02 10:23:23;;;;;;;13.95;3.30;;;4.80;99.90;;;;;;6216470;23;20397;-93
2022/02/02 10:25:57;;;;;;;18.52;3.58;;;4.80;99.90;;;;;;6216283;23;20001;-91
2022/02/02 10:28:31;;;;;;;13.63;3.43;;;4.80;99.90;;;;;;6217788;23;19997;-91
2022/02/02 10:31:04;;;;;;;17.45;3.35;;;4.90;99.90;;;;;;6216259;23;20000;-92
2022/02/02 10:33:31;;;;;;;12.93;2.95;;;4.90;99.90;;;;;;6216550;23;20004;-91
2022/02/02 10:36:09;;;;;;;12.55;3.45;;;4.80;99.90;;;;;;6217078;23;20004;-92
2022/02/02 10:38:50;;;;;;;16.83;3.60;;;4.80;99.90;;;;;;6216591;23;20008;-92
2022/02/02 10:41:29;;;;;;;16.33;3.83;;;4.90;99.90;;;;;;6216827;23;20035;-92
2022/02/02 10:44:03;;;;;;;13.32;3.60;;;4.90;99.90;;;;;;6216452;23;20000;-92
2022/02/02 10:46:52;;;;;;;12.70;3.38;;;4.90;99.90;;;;;;6218674;23;20012;-91
2022/02/02 10:49:25;;;;;;;15.07;3.25;;;4.90;99.90;;;;;;6216172;23;20012;-92
2022/02/02 10:57:32;;;;;;;19.40;4.57;;;5.00;99.90;;;;;;6217802;23;20012;-92
2022/02/02 11:07:49;;;;;;;11.65;3.22;;;5.10;99.90;;;;;;6217912;23;20007;-90
2022/02/02 11:10:16;;;;;;;15.82;3.80;;;5.10;99.90;;;;;;6216216;23;20307;-91
2022/02/02 11:12:42;;;;;;;17.05;3.83;;;5.20;99.90;;;;;;6215862;23;20015;-91
2022/02/02 11:15:32;;;;;;;18.30;3.70;;;5.40;99.90;;;;;;6217399;23;20390;-89
2022/02/02 11:18:07;;;;;;;13.48;3.60;;;5.50;99.90;;;;;;6215764;23;20008;-89
2022/02/02 11:20:33;;;;;;;17.88;4.10;;;5.60;99.90;;;;;;6215604;23;20453;-91
2022/02/02 11:23:01;;;;;;;17.02;4.15;;;5.60;99.90;;;;;;6215489;23;20016;-90
2022/02/02 11:25:33;;;;;;;10.52;2.70;;;5.70;99.90;;;;;;6215365;23;20007;-91
2022/02/02 11:28:01;;;;;;;17.83;3.45;;;5.80;99.90;;;;;;6215364;23;20000;-90
2022/02/02 11:30:27;;;;;;;9.57;2.92;;;6.00;99.90;;;;;;6215693;23;20004;-89
2022/02/02 11:32:58;;;;;;;18.70;4.28;;;6.10;99.90;;;;;;6215814;23;20440;-90
2022/02/02 11:35:26;;;;;;;14.57;3.70;;;6.30;99.90;;;;;;6215123;23;20007;-90
2022/02/02 11:37:59;;;;;;;17.00;3.28;;;6.30;99.90;;;;;;6215982;23;20324;-91
2022/02/02 11:40:27;;;;;;;19.05;3.58;;;6.30;99.90;;;;;;6215491;23;20032;-91
2022/02/02 11:43:10;;;;;;;11.88;3.13;;;6.30;99.90;;;;;;6217176;23;20055;-91
2022/02/02 11:45:48;;;;;;;12.07;2.70;;;6.20;99.90;;;;;;6215435;23;20008;-90
2022/02/02 11:48:53;;;;;;;18.00;3.88;;;6.20;99.90;;;;;;6215159;23;20009;-91
2022/02/02 11:51:39;;;;;;;13.77;3.40;;;6.10;99.90;;;;;;6217125;23;20001;-91
2022/02/02 11:54:07;;;;;;;14.52;3.90;;;6.10;99.90;;;;;;6215143;23;20005;-90
2022/02/02 11:56:59;;;;;;;16.42;3.97;;;6.00;99.90;;;;;;6215242;23;20009;-91
2022/02/02 12:00:08;;;;;;;13.23;3.50;;;6.00;99.90;;;;;;6216751;23;20027;-90
2022/02/02 12:57:51;;;;;;;15.20;3.72;;;5.70;99.90;;;;;;6256890;23;20007;-90
2022/02/02 13:02:50;;;;;;;13.63;3.40;;;5.80;99.90;;;;;;6256566;23;20049;-90
2022/02/02 13:05:21;;;;;;;14.40;4.30;;;5.90;99.90;;;;;;6219457;23;20004;-89
2022/02/02 13:07:47;;;;;;;11.10;3.85;;;5.90;99.90;;;;;;6219616;23;20008;-90
2022/02/02 13:10:20;;;;;;;13.07;3.50;;;5.90;99.90;;;;;;6219462;23;20441;-90
2022/02/02 13:20:47;;;;;;;11.77;3.35;;;5.80;99.90;;;;;;6256539;23;20019;-90
2022/02/02 13:23:30;;;;;;;14.65;3.90;;;5.80;99.90;;;;;;6220723;23;20083;-90
2022/02/02 13:26:04;;;;;;;12.50;3.40;;;5.80;99.90;;;;;;6221301;23;20004;-88
2022/02/02 13:28:37;;;;;;;11.90;3.28;;;5.80;99.90;;;;;;6248272;23;19996;-88
2022/02/02 13:31:03;;;;;;;14.73;3.35;;;5.90;99.90;;;;;;6221241;23;20079;-90
2022/02/02 13:33:36;;;;;;;11.23;3.40;;;5.90;99.90;;;;;;6221113;23;20428;-90
2022/02/02 13:36:51;;;;;;;17.55;3.50;;;5.90;99.90;;;;;;6221438;23;20004;-90
2022/02/02 14:33:08;;;;;;;14.07;3.30;;;5.40;99.90;;;;;;6247900;23;20328;-91
2022/02/02 14:35:34;;;;;;;11.80;3.35;;;5.40;99.90;;;;;;6247805;23;20004;-90
2022/02/02 14:38:00;;;;;;;9.30;3.15;;;5.40;99.90;;;;;;6220904;23;20039;-91
2022/02/02 14:43:24;;;;;;;14.32;3.60;;;5.40;99.90;;;;;;6212958;23;20000;-90
2022/02/02 14:45:55;;;;;;;11.70;3.47;;;5.40;99.90;;;;;;6220892;23;20003;-91
2022/02/02 14:48:27;;;;;;;11.68;3.38;;;5.40;99.90;;;;;;6215558;23;20519;-90
2022/02/02 15:28:14;;;;;;;8.13;2.72;;;5.40;99.90;;;;;;6227005;23;20011;-91
2022/02/02 15:33:21;;;;;;;6.43;2.60;;;5.40;99.90;;;;;;6226996;23;20452;-90
2022/02/02 15:35:48;;;;;;;8.75;2.63;;;5.40;99.90;;;;;;6215559;23;20092;-90
2022/02/02 15:38:22;;;;;;;6.85;3.03;;;5.40;99.90;;;;;;6215545;23;20015;-91
2022/02/02 15:40:54;;;;;;;6.72;2.78;;;5.40;99.90;;;;;;6215604;23;20425;-90
2022/02/02 16:02:15;;;;;;;6.70;2.35;;;5.30;99.90;;;;;;6257472;23;20040;-90
2022/02/02 16:04:42;;;;;;;9.73;3.15;;;5.30;99.90;;;;;;6219800;23;20028;-90
2022/02/02 16:07:10;;;;;;;8.30;3.00;;;5.30;99.90;;;;;;6219651;23;20010;-90
2022/02/02 16:12:41;;;;;;;7.75;3.20;;;5.30;99.90;;;;;;6221161;23;20080;-90
2022/02/02 16:18:06;;;;;;;10.68;2.90;;;5.30;99.90;;;;;;6247422;23;20005;-90
2022/02/02 16:39:00;;;;;;;5.47;3.00;;;5.30;99.90;;;;;;6246720;23;20337;-90
2022/02/02 16:44:10;;;;;;;6.43;3.17;;;5.30;99.90;;;;;;6246819;23;20011;-90
2022/02/02 16:46:36;;;;;;;8.57;3.33;;;5.30;99.90;;;;;;6219917;23;20001;-90
2022/02/02 16:49:02;;;;;;;5.30;2.75;;;5.30;99.90;;;;;;6214584;23;20062;-90
2022/02/02 16:51:28;;;;;;;5.55;2.95;;;5.30;99.90;;;;;;6214803;23;20004;-90
2022/02/02 16:53:57;;;;;;;5.90;2.67;;;5.30;99.90;;;;;;6214656;23;20145;-90
2022/02/02 17:31:36;;;;;;;9.68;4.13;;;5.30;99.90;;;;;;6227993;23;20063;-90
2022/02/02 17:34:20;;;;;;;6.20;3.33;;;5.30;99.90;;;;;;6216316;23;20000;-90
2022/02/02 17:36:54;;;;;;;8.40;3.57;;;5.30;99.90;;;;;;6216416;23;20004;-90
2022/02/02 17:39:25;;;;;;;5.72;3.17;;;5.30;99.90;;;;;;6216362;23;20051;-90
2022/02/02 17:42:51;;;;;;;6.20;3.00;;;5.30;99.90;;;;;;6216395;23;20110;-90
2022/02/02 18:20:42;;;;;;;5.13;3.08;;;5.30;99.90;;;;;;6227536;23;20062;-90
2022/02/02 18:23:28;;;;;;;5.10;3.08;;;5.30;99.90;;;;;;6215720;23;20091;-90
2022/02/02 18:28:57;;;;;;;5.57;2.35;;;5.30;99.90;;;;;;6228116;23;20076;-89
2022/02/02 18:33:58;;;;;;;5.13;2.95;;;5.30;99.90;;;;;;6227766;23;20005;-89
2022/02/02 18:57:25;;;;;;;5.53;3.28;;;5.30;99.90;;;;;;6257511;23;20432;-89
2022/02/02 20:07:26;;;;;;;5.70;3.45;;;5.40;99.90;;;;;;6246675;23;20016;-89
2022/02/02 20:12:28;;;;;;;5.85;3.60;;;5.30;99.90;;;;;;6257179;23;20038;-89
2022/02/02 20:14:54;;;;;;;5.72;3.38;;;5.30;99.90;;;;;;6219754;23;20011;-90
2022/02/02 20:17:22;;;;;;;4.85;3.40;;;5.30;99.90;;;;;;6219749;23;20008;-89
2022/02/02 20:19:54;;;;;;;5.13;3.35;;;5.30;99.90;;;;;;6219720;23;20463;-89
2022/02/02 20:22:23;;;;;;;6.15;3.78;;;5.30;99.90;;;;;;6246462;23;20329;-89
2022/02/02 20:24:57;;;;;;;6.15;3.50;;;5.30;99.90;;;;;;6219564;23;20096;-89
2022/02/02 20:27:23;;;;;;;5.30;3.45;;;5.30;99.90;;;;;;6219922;23;20083;-89
2022/02/02 20:29:49;;;;;;;5.13;3.65;;;5.30;99.90;;;;;;6219481;23;20011;-89
2022/02/02 20:32:16;;;;;;;5.53;3.33;;;5.30;99.90;;;;;;6219672;23;20011;-89
2022/02/02 20:34:41;;;;;;;5.05;3.38;;;5.30;99.90;;;;;;6219641;23;20004;-89
2022/02/02 20:37:08;;;;;;;5.43;3.30;;;5.30;99.90;;;;;;6219542;23;20015;-89
2022/02/02 20:42:03;;;;;;;5.95;3.55;;;5.30;99.90;;;;;;6246454;23;20004;-89
2022/02/02 20:44:48;;;;;;;6.00;3.80;;;5.30;99.90;;;;;;6219365;23;20012;-89
2022/02/02 21:03:43;;;;;;;6.25;3.90;;;5.30;99.90;;;;;;6245882;23;20011;-88
2022/02/02 21:08:56;;;;;;;5.32;3.42;;;5.40;99.90;;;;;;6246656;23;20302;-89
2022/02/02 21:11:38;;;;;;;5.85;3.35;;;5.30;99.90;;;;;;6245785;23;20333;-89
2022/02/02 21:14:03;;;;;;;6.35;3.95;;;5.40;99.90;;;;;;6219332;23;20012;-89
2022/02/02 21:16:36;;;;;;;4.35;3.35;;;5.40;99.90;;;;;;6246595;23;20004;-89
2022/02/02 21:19:04;;;;;;;5.38;3.55;;;5.30;99.90;;;;;;6220236;23;20004;-89
2022/02/02 21:21:46;;;;;;;5.35;3.53;;;5.30;99.90;;;;;;6245960;23;20024;-89
2022/02/02 21:29:35;;;;;;;7.85;4.50;;;5.30;99.90;;;;;;6256302;23;20425;-89
2022/02/02 21:32:00;;;;;;;5.75;3.72;;;5.40;99.90;;;;;;6245961;23;19996;-88
2022/02/02 21:34:26;;;;;;;5.85;4.00;;;5.30;99.90;;;;;;6246049;23;20015;-88
2022/02/02 21:36:54;;;;;;;6.57;4.18;;;5.30;99.90;;;;;;6219234;23;20062;-88
2022/02/02 21:39:23;;;;;;;6.28;3.85;;;5.30;99.90;;;;;;6219209;23;20040;-89
2022/02/02 21:41:51;;;;;;;7.13;3.85;;;5.30;99.90;;;;;;6219126;23;20016;-89
2022/02/02 21:44:17;;;;;;;7.43;3.67;;;5.30;99.90;;;;;;6220374;23;20008;-89
2022/02/02 21:46:43;;;;;;;8.15;4.00;;;5.30;99.90;;;;;;6221031;23;20498;-88
2022/02/02 21:49:16;;;;;;;5.90;3.72;;;5.30;99.90;;;;;;6247663;23;20039;-89
2022/02/02 21:51:54;;;;;;;5.55;3.80;;;5.30;99.90;;;;;;6221079;23;20539;-89
2022/02/02 21:54:20;;;;;;;5.70;3.63;;;5.30;99.90;;;;;;6221145;23;20008;-88
2022/02/02 21:56:46;;;;;;;5.03;3.90;;;5.30;99.90;;;;;;6221050;23;20011;-89
2022/02/02 21:59:11;;;;;;;5.05;3.67;;;5.30;99.90;;;;;;6221693;23;20004;-89
2022/02/02 22:01:37;;;;;;;5.82;3.88;;;5.30;99.90;;;;;;6221146;23;20091;-89
2022/02/02 22:04:03;;;;;;;4.57;3.40;;;5.30;99.90;;;;;;6247627;23;20059;-89
2022/02/02 22:06:29;;;;;;;4.53;3.42;;;5.30;99.90;;;;;;6220807;23;20000;-89
2022/02/02 22:08:55;;;;;;;7.22;4.05;;;5.30;99.90;;;;;;6220772;23;20030;-89
2022/02/02 22:11:22;;;;;;;5.90;3.78;;;5.30;99.90;;;;;;6220671;23;20428;-89
2022/02/02 22:13:57;;;;;;;5.30;3.88;;;5.30;99.90;;;;;;6220836;23;20015;-88
2022/02/02 22:16:23;;;;;;;6.53;3.67;;;5.30;99.90;;;;;;6221861;23;20001;-89
2022/02/02 22:18:50;;;;;;;6.40;3.75;;;5.30;99.90;;;;;;6221770;23;20035;-89
2022/02/02 22:21:17;;;;;;;6.60;4.22;;;5.40;99.90;;;;;;6220765;23;20447;-90
2022/02/02 22:23:43;;;;;;;5.45;3.55;;;5.40;99.90;;;;;;6247473;23;20004;-89
2022/02/02 22:26:10;;;;;;;5.05;3.60;;;5.30;99.90;;;;;;6220882;23;20392;-89
2022/02/02 22:28:35;;;;;;;5.65;3.85;;;5.30;99.90;;;;;;6220684;23;20425;-89
2022/02/02 22:31:01;;;;;;;6.82;4.18;;;5.30;99.90;;;;;;6220695;23;20000;-89
2022/02/02 22:33:27;;;;;;;5.63;3.72;;;5.30;99.90;;;;;;6220628;23;20440;-89
2022/02/02 22:35:53;;;;;;;6.38;4.28;;;5.30;99.90;;;;;;6220583;23;20433;-89
2022/02/02 22:38:19;;;;;;;7.00;4.63;;;5.30;99.90;;;;;;6220577;23;20097;-89
2022/02/02 22:40:45;;;;;;;6.47;4.47;;;5.30;99.90;;;;;;6220542;23;20008;-89
2022/02/02 22:43:12;;;;;;;5.38;3.92;;;5.30;99.90;;;;;;6220345;23;20042;-89
2022/02/02 22:45:45;;;;;;;5.53;4.35;;;5.30;99.90;;;;;;6220486;23;20031;-89
2022/02/02 22:48:15;;;;;;;5.70;4.25;;;5.40;99.90;;;;;;6246961;23;20016;-88
2022/02/02 22:50:41;;;;;;;7.50;4.20;;;5.30;99.90;;;;;;6220295;23;20004;-88
2022/02/02 22:53:07;;;;;;;8.10;4.28;;;5.30;99.90;;;;;;6220471;23;20452;-89
2022/02/02 22:55:32;;;;;;;9.32;5.00;;;5.30;99.90;;;;;;6247075;23;20004;-89
2022/02/02 22:57:58;;;;;;;6.20;4.40;;;5.30;99.90;;;;;;6220316;23;20013;-89
2022/02/02 23:00:32;;;;;;;5.85;4.25;;;5.30;99.90;;;;;;6220325;23;20006;-88
2022/02/02 23:03:00;;;;;;;6.45;4.28;;;5.30;99.90;;;;;;6220270;23;20087;-89
2022/02/02 23:08:00;;;;;;;6.43;3.83;;;5.30;99.90;;;;;;6257652;23;20070;-88
2022/02/02 23:10:26;;;;;;;6.25;4.35;;;5.40;99.90;;;;;;6220306;23;20031;-88
2022/02/02 23:12:52;;;;;;;6.70;4.20;;;5.30;99.90;;;;;;6220250;23;20008;-88
2022/02/02 23:15:25;;;;;;;5.85;3.70;;;5.30;99.90;;;;;;6220094;23;20062;-88
2022/02/02 23:17:51;;;;;;;7.17;4.37;;;5.30;99.90;;;;;;6247414;23;20045;-89
2022/02/02 23:20:17;;;;;;;6.30;4.63;;;5.30;99.90;;;;;;6220105;23;20042;-88
2022/02/02 23:22:45;;;;;;;5.70;4.40;;;5.30;99.90;;;;;;6219999;23;20384;-88
2022/02/02 23:25:14;;;;;;;6.50;4.45;;;5.40;99.90;;;;;;6219898;23;20010;-88
2022/02/02 23:27:44;;;;;;;6.90;4.03;;;5.30;99.90;;;;;;6220009;23;20496;-88
2022/02/02 23:30:14;;;;;;;6.07;4.20;;;5.30;99.90;;;;;;6219771;23;20015;-88
2022/02/02 23:32:40;;;;;;;5.82;4.25;;;5.40;99.90;;;;;;6247001;23;20024;-88
2022/02/02 23:35:10;;;;;;;5.97;4.50;;;5.30;99.90;;;;;;6219959;23;20031;-88
2022/02/02 23:37:39;;;;;;;6.72;4.18;;;5.40;99.90;;;;;;6219905;23;20031;-88
2022/02/02 23:40:09;;;;;;;6.40;4.35;;;5.40;99.90;;;;;;6220157;23;20028;-87
2022/02/02 23:42:37;;;;;;;5.25;3.67;;;5.30;99.90;;;;;;6219747;23;20011;-88
2022/02/02 23:45:05;;;;;;;5.40;4.05;;;5.30;99.90;;;;;;6219635;23;20008;-88
2022/02/02 23:47:34;;;;;;;5.07;3.83;;;5.30;99.90;;;;;;6219634;23;20027;-88
2022/02/02 23:50:07;;;;;;;7.35;4.15;;;5.30;99.90;;;;;;6214441;23;20021;-87
2022/02/02 23:52:47;;;;;;;5.40;4.05;;;5.30;99.90;;;;;;6190639;23;20009;-88
2022/02/02 23:55:25;;;;;;;6.15;4.10;;;5.40;99.90;;;;;;6214614;23;20344;-87
2022/02/02 23:58:10;;;;;;;5.75;4.10;;;5.40;99.90;;;;;;6214687;23;20001;-87
